Time;durP1;ratioP1;P1;durP2;ratioP2;P2;SDS_P1;SDS_P2;PMS_P1;PMS_P2;Temp;Humidity;BMP_temperature;BMP_pressure;BME280_temperature;BME280_humidity;BME280_pressure;Samples;Min_cycle;Max_cycle;Signal;HPM_P1;HPM_P2
2023/05/19 00:06:10;;;;;;;6.00;3.23;;;;;;;9.81;63.25;101186.81;30862750;28;96986;-66
2023/05/19 00:21:10;;;;;;;5.17;3.23;;;;;;;9.55;64.19;101194.50;30861860;28;96814;-71
2023/05/19 00:36:11;;;;;;;8.23;3.50;;;;;;;9.26;64.91;101190.81;30860346;28;97168;-65
2023/05/19 00:51:15;;;;;;;8.52;4.07;;;;;;;9.19;66.07;101184.38;30858974;28;96770;-66
2023/05/19 01:06:17;;;;;;;9.30;4.13;;;;;;;9.31;66.33;101193.09;30856947;28;97177;-66
2023/05/19 01:21:43;;;;;;;6.67;4.10;;;;;;;9.34;66.70;101192.81;30856550;28;96673;-65
2023/05/19 01:36:47;;;;;;;7.90;4.13;;;;;;;9.32;66.98;101195.59;30855885;28;96665;-69
2023/05/19 01:51:48;;;;;;;9.70;4.40;;;;;;;9.29;67.57;101190.56;30873605;28;96693;-66
2023/05/19 02:07:08;;;;;;;9.27;4.37;;;;;;;9.26;67.75;101187.34;30874557;28;97095;-65
2023/05/19 02:22:09;;;;;;;5.43;3.77;;;;;;;9.30;68.04;101192.22;30873716;28;97537;-65
2023/05/19 02:37:11;;;;;;;7.10;3.85;;;;;;;9.29;68.25;101173.75;30872281;28;96643;-67
2023/05/19 02:52:11;;;;;;;12.97;3.60;;;;;;;9.29;68.52;101173.75;30870103;28;96769;-65
2023/05/19 03:07:15;;;;;;;7.75;3.85;;;;;;;9.28;68.92;101177.38;30868127;28;102096;-65
2023/05/19 03:22:17;;;;;;;;;;;;;;;9.40;69.10;101186.09;30867119;28;97378;-65
2023/05/19 03:37:17;;;;;;;8.30;4.33;;;;;;;9.58;68.80;101168.47;30866660;28;96787;-65
2023/05/19 03:52:18;;;;;;;8.13;4.90;;;;;;;9.76;69.58;101176.59;30862103;28;107964;-65
2023/05/19 04:07:18;;;;;;;11.05;5.20;;;;;;;9.97;69.44;101179.09;30861112;28;96560;-65
2023/05/19 04:22:19;;;;;;;9.68;5.60;;;;;;;10.29;68.87;101182.38;30858923;28;104438;-69
2023/05/19 04:37:19;;;;;;;8.73;4.23;;;;;;;10.74;68.23;101178.22;30857028;28;116469;-66
2023/05/19 04:52:21;;;;;;;8.57;4.25;;;;;;;11.06;68.28;101184.91;30855777;28;97844;-69
2023/05/19 05:07:21;;;;;;;7.80;3.93;;;;;;;11.34;67.37;101188.41;30849564;28;96764;-72
2023/05/19 05:22:22;;;;;;;5.97;3.03;;;;;;;11.33;66.77;101186.72;30851521;28;96823;-70
2023/05/19 05:37:22;;;;;;;9.73;3.33;;;;;;;11.42;66.69;101190.31;30848767;28;97505;-68
2023/05/19 05:52:28;;;;;;;5.63;3.33;;;;;;;11.65;66.37;101193.38;30853127;28;96968;-69
2023/05/19 06:07:28;;;;;;;8.90;3.47;;;;;;;12.12;65.08;101195.78;30849403;28;97279;-70
2023/05/19 06:22:29;;;;;;;6.97;3.67;;;;;;;12.12;64.64;101214.50;30843645;28;108713;-67
2023/05/19 06:37:29;;;;;;;4.50;3.13;;;;;;;12.10;65.06;101215.66;30863821;28;96708;-68
2023/05/19 06:52:30;;;;;;;7.25;3.90;;;;;;;11.98;64.71;101223.06;30865144;28;96690;-69
2023/05/19 07:07:30;;;;;;;6.55;3.70;;;;;;;12.12;64.87;101225.16;30865390;28;100227;-72
2023/05/19 07:22:31;;;;;;;6.45;3.20;;;;;;;12.09;64.93;101233.50;30865681;28;97237;-70
2023/05/19 07:37:31;;;;;;;4.97;2.78;;;;;;;12.06;64.60;101236.50;30860673;28;96679;-76
2023/05/19 07:52:31;;;;;;;5.00;2.50;;;;;;;12.16;64.67;101234.56;30859160;28;96691;-66
2023/05/19 08:07:32;;;;;;;4.90;2.20;;;;;;;12.42;64.32;101235.59;30858344;28;106653;-66
2023/05/19 08:22:32;;;;;;;6.60;2.60;;;;;;;13.31;64.52;101220.97;30858978;28;97055;-67
2023/05/19 08:37:35;;;;;;;6.57;2.70;;;;;;;14.20;62.24;101215.91;30856476;28;97329;-66
2023/05/19 08:52:54;;;;;;;5.70;2.60;;;;;;;14.48;60.47;101222.72;30854655;28;97416;-66
2023/05/19 09:07:55;;;;;;;3.87;2.20;;;;;;;15.39;59.27;101215.16;30853732;28;96716;-65
2023/05/19 09:22:58;;;;;;;4.83;2.00;;;;;;;16.51;56.32;101214.66;30852282;28;97166;-70
2023/05/19 09:37:59;;;;;;;4.30;2.63;;;;;;;17.35;53.97;101204.56;30852157;28;97232;-74
2023/05/19 09:53:01;;;;;;;8.70;3.93;;;;;;;17.97;51.82;101189.63;30850197;28;97451;-76
2023/05/19 10:08:05;;;;;;;8.77;3.07;;;;;;;17.94;51.19;101173.84;30861062;28;98219;-72
2023/05/19 10:23:06;;;;;;;8.93;3.97;;;;;;;17.06;50.47;101182.06;30870282;28;97534;-71
2023/05/19 10:38:32;;;;;;;21.90;5.50;;;;;;;15.85;52.28;101171.41;30868654;28;97170;-70
2023/05/19 10:53:33;;;;;;;9.70;5.00;;;;;;;15.88;53.70;101177.28;30866264;28;97258;-66
2023/05/19 11:08:34;;;;;;;7.47;3.63;;;;;;;15.39;54.56;101173.06;30864455;28;97521;-71
2023/05/19 11:23:38;;;;;;;15.85;8.13;;;;;;;15.01;55.82;101169.44;30863249;28;96747;-66
2023/05/19 11:38:39;;;;;;;8.87;3.57;;;;;;;14.98;55.57;101175.13;30862377;28;96932;-68
2023/05/19 11:53:39;;;;;;;8.03;4.60;;;;;;;14.50;56.21;101178.66;30861256;28;96684;-71
2023/05/19 12:08:40;;;;;;;10.20;6.35;;;;;;;14.38;57.17;101172.81;30857369;28;96797;-66
2023/05/19 12:23:41;;;;;;;9.20;5.25;;;;;;;14.52;57.75;101165.91;30856821;28;96835;-66
2023/05/19 12:38:42;;;;;;;9.40;6.47;;;;;;;14.68;56.93;101177.59;30856091;28;97467;-67
2023/05/19 12:53:42;;;;;;;11.13;8.73;;;;;;;14.55;57.88;101176.28;30853634;28;97186;-66
2023/05/19 13:08:46;;;;;;;12.50;9.25;;;;;;;14.19;57.57;101165.97;30852478;28;96746;-66
2023/05/19 13:23:46;;;;;;;12.63;9.70;;;;;;;14.31;58.77;101162.94;30851027;28;97406;-65
2023/05/19 13:38:46;;;;;;;10.98;8.90;;;;;;;14.30;58.71;101164.78;30850177;28;97228;-67
2023/05/19 13:53:47;;;;;;;15.55;11.23;;;;;;;14.15;59.14;101169.19;30849995;28;96869;-69
2023/05/19 14:08:47;;;;;;;14.65;8.93;;;;;;;15.04;59.14;101153.81;30846416;28;100606;-73
2023/05/19 14:23:47;;;;;;;12.98;9.18;;;;;;;16.65;57.27;101152.94;30846700;28;103303;-75
2023/05/19 14:38:48;;;;;;;12.88;10.00;;;;;;;16.07;56.26;101154.44;30849090;28;96708;-71
2023/05/19 14:53:49;;;;;;;17.73;10.18;;;;;;;16.77;55.98;101143.38;30858062;28;103936;-78
2023/05/19 15:08:49;;;;;;;14.32;10.38;;;;;;;16.67;54.83;101149.03;30867275;28;97166;-65
2023/05/19 15:23:50;;;;;;;20.25;10.82;;;;;;;16.23;55.21;101153.41;30861589;28;96915;-65
2023/05/19 15:38:50;;;;;;;16.50;11.73;;;;;;;15.70;56.10;101145.28;30862085;28;97472;-63
2023/05/19 15:53:51;;;;;;;17.65;11.93;;;;;;;15.37;56.48;101125.94;30860191;28;113186;-65
2023/05/19 16:08:51;;;;;;;14.80;10.10;;;;;;;15.13;57.48;101125.09;30853893;28;96922;-72
2023/05/19 16:23:51;;;;;;;12.70;9.40;;;;;;;14.91;58.25;101123.19;30847638;28;96819;-73
2023/05/19 16:38:53;;;;;;;15.68;9.98;;;;;;;14.71;58.54;101120.97;30840046;28;97044;-64
2023/05/19 16:53:53;;;;;;;15.17;9.47;;;;;;;14.46;59.16;101122.84;30839515;28;96763;-65
2023/05/19 17:08:53;;;;;;;14.77;10.48;;;;;;;14.25;59.51;101126.94;30849693;28;107301;-64
2023/05/19 17:23:54;;;;;;;14.18;10.10;;;;;;;13.90;60.61;101123.69;30840653;28;97170;-65
2023/05/19 17:38:54;;;;;;;14.20;10.82;;;;;;;13.74;61.16;101137.91;30845878;28;97139;-63
2023/05/19 17:53:54;;;;;;;14.25;9.82;;;;;;;13.57;61.99;101138.91;30850662;28;115735;-66
2023/05/19 18:08:59;;;;;;;16.85;11.32;;;;;;;13.36;62.68;101138.38;30851444;28;96667;-68
2023/05/19 18:24:01;;;;;;;20.60;12.10;;;;;;;13.26;63.31;101139.50;30856100;28;96724;-65
2023/05/19 18:39:03;;;;;;;14.93;11.97;;;;;;;13.17;63.71;101127.94;30871353;28;97791;-71
2023/05/19 18:54:03;;;;;;;17.00;11.53;;;;;;;13.10;64.31;101146.50;30868799;28;97300;-70
2023/05/19 19:09:03;;;;;;;18.95;11.93;;;;;;;12.98;64.76;101153.97;30867023;28;97311;-67
2023/05/19 19:24:04;;;;;;;15.77;12.00;;;;;;;12.94;65.22;101176.69;30867054;28;99527;-70
2023/05/19 19:39:04;;;;;;;18.83;12.40;;;;;;;12.89;65.70;101172.84;30864919;28;96703;-64
2023/05/19 19:54:05;;;;;;;18.48;11.73;;;;;;;12.86;66.12;101174.84;30863290;28;103264;-64
2023/05/19 20:09:05;;;;;;;20.42;13.13;;;;;;;12.81;66.56;101179.00;30861547;28;96767;-64
2023/05/19 20:24:06;;;;;;;15.98;12.38;;;;;;;12.74;66.77;101181.47;30860142;28;96746;-69
2023/05/19 20:39:08;;;;;;;17.33;12.23;;;;;;;12.66;67.35;101192.13;30859125;28;97094;-64
2023/05/19 20:54:08;;;;;;;19.60;13.47;;;;;;;12.58;67.73;101182.22;30857014;28;96804;-69
2023/05/19 21:09:09;;;;;;;21.48;14.35;;;;;;;12.49;68.43;101173.34;30856837;28;97254;-68
2023/05/19 21:24:11;;;;;;;19.13;14.40;;;;;;;12.44;68.59;101166.78;30854495;28;97193;-66
2023/05/19 21:39:12;;;;;;;20.50;15.37;;;;;;;12.44;69.07;101170.28;30854923;28;96732;-72
2023/05/19 21:54:12;;;;;;;19.65;15.05;;;;;;;12.41;69.00;101167.09;30854065;28;96694;-66
2023/05/19 22:09:13;;;;;;;20.17;15.13;;;;;;;12.37;69.45;101158.56;30871802;28;108364;-67
2023/05/19 22:24:13;;;;;;;21.63;14.95;;;;;;;12.30;69.72;101158.38;30873646;28;96745;-68
2023/05/19 22:39:13;;;;;;;23.60;15.93;;;;;;;12.23;70.10;101138.59;30872734;28;99874;-69
2023/05/19 22:54:14;;;;;;;24.15;16.30;;;;;;;12.17;70.80;101141.91;30871060;28;96754;-63
2023/05/19 23:09:15;;;;;;;20.88;14.88;;;;;;;12.17;71.39;101147.25;30864396;28;96712;-65
2023/05/19 23:24:15;;;;;;;26.70;15.27;;;;;;;12.11;71.26;101142.53;30860058;28;97665;-72
2023/05/19 23:39:15;;;;;;;23.40;14.25;;;;;;;12.02;71.68;101144.31;30859283;28;97283;-66
2023/05/19 23:54:16;;;;;;;22.35;15.40;;;;;;;12.02;71.75;101129.13;30855974;28;96649;-68
